Time;durP1;ratioP1;P1;durP2;ratioP2;P2;SDS_P1;SDS_P2;PMS_P1;PMS_P2;Temp;Humidity;BMP_temperature;BMP_pressure;BME280_temperature;BME280_humidity;BME280_pressure;Samples;Min_cycle;Max_cycle;Signal;HPM_P1;HPM_P2
2023/05/14 00:01:58;;;;;;;19.70;11.20;;;;;;;12.71;77.55;100147.34;5023658;28;20049;-74
2023/05/14 00:04:23;;;;;;;19.23;10.57;;;;;;;12.70;77.07;100145.72;5024025;28;20270;-75
2023/05/14 00:06:48;;;;;;;22.85;13.25;;;;;;;12.73;77.29;100141.66;5023807;28;20298;-73
2023/05/14 00:09:13;;;;;;;22.53;12.00;;;;;;;12.69;77.77;100141.34;5022122;28;20123;-73
2023/05/14 00:11:39;;;;;;;17.73;12.20;;;;;;;12.70;77.76;100140.25;5023540;28;20262;-73
2023/05/14 00:14:04;;;;;;;18.27;11.80;;;;;;;12.64;76.93;100137.78;5023831;28;20263;-73
2023/05/14 00:16:29;;;;;;;18.42;12.75;;;;;;;12.69;77.74;100135.06;5023457;28;20053;-73
2023/05/14 00:18:55;;;;;;;18.60;12.50;;;;;;;12.71;77.28;100141.88;5023171;28;20056;-73
2023/05/14 00:21:20;;;;;;;21.70;12.52;;;;;;;12.66;77.99;100135.59;5023369;28;20259;-73
2023/05/14 00:23:45;;;;;;;16.07;12.53;;;;;;;12.62;77.46;100135.31;5023591;28;20425;-73
2023/05/14 00:26:10;;;;;;;15.50;11.53;;;;;;;12.52;77.59;100138.84;5023334;28;20267;-74
2023/05/14 00:28:36;;;;;;;17.30;12.40;;;;;;;12.49;77.98;100133.91;5023576;28;20263;-74
2023/05/14 00:31:01;;;;;;;20.07;13.00;;;;;;;12.48;77.87;100127.63;5023473;28;20664;-74
2023/05/14 00:33:26;;;;;;;15.37;11.43;;;;;;;12.41;78.47;100128.97;5023253;28;20366;-74
2023/05/14 00:35:52;;;;;;;17.35;11.80;;;;;;;12.42;77.92;100122.41;5022771;28;20278;-74
2023/05/14 00:38:18;;;;;;;20.13;11.60;;;;;;;12.37;78.16;100120.47;5023091;28;20040;-74
2023/05/14 00:40:48;;;;;;;17.80;10.60;;;;;;;12.39;78.17;100118.28;5023227;28;20270;-73
2023/05/14 00:43:14;;;;;;;20.00;12.55;;;;;;;12.36;78.07;100114.19;5023341;28;20044;-73
2023/05/14 00:45:40;;;;;;;20.10;12.88;;;;;;;12.33;78.52;100111.16;5022873;28;20850;-73
2023/05/14 00:48:05;;;;;;;18.20;13.70;;;;;;;12.35;77.90;100111.72;5022604;28;20367;-73
2023/05/14 00:50:31;;;;;;;18.85;12.82;;;;;;;12.34;78.06;100112.81;5023394;28;20037;-73
2023/05/14 00:52:56;;;;;;;22.88;12.70;;;;;;;12.33;78.20;100113.88;5023108;28;20039;-73
2023/05/14 00:55:22;;;;;;;21.42;13.32;;;;;;;12.26;78.16;100109.47;5023046;28;20641;-73
2023/05/14 00:57:49;;;;;;;19.80;11.88;;;;;;;12.20;78.63;100105.13;5021517;28;20087;-72
2023/05/14 01:00:14;;;;;;;20.95;13.38;;;;;;;12.16;78.49;100114.94;5022743;28;20040;-73
2023/05/14 01:02:40;;;;;;;18.52;13.73;;;;;;;12.21;77.86;100114.94;5023892;28;20034;-74
2023/05/14 01:05:06;;;;;;;20.63;13.30;;;;;;;12.20;78.02;100105.13;5022821;28;20033;-74
2023/05/14 01:08:04;;;;;;;20.80;12.95;;;;;;;12.22;77.75;100100.19;5022978;28;20384;-74
2023/05/14 01:10:44;;;;;;;20.23;12.98;;;;;;;12.13;78.80;100112.72;5022436;28;20042;-74
2023/05/14 01:13:42;;;;;;;19.50;13.18;;;;;;;12.14;78.17;100101.50;5022800;28;20029;-74
2023/05/14 01:16:12;;;;;;;22.75;14.15;;;;;;;12.08;78.71;100099.03;5022399;28;20140;-74
2023/05/14 01:18:39;;;;;;;21.92;11.82;;;;;;;12.12;78.74;100092.75;5022355;28;20068;-73
2023/05/14 01:21:16;;;;;;;22.00;12.30;;;;;;;11.99;78.97;100099.53;5022314;28;20022;-73
2023/05/14 01:23:42;;;;;;;18.52;12.45;;;;;;;11.99;78.70;100093.22;5022480;28;20064;-74
2023/05/14 01:26:07;;;;;;;17.83;12.33;;;;;;;12.02;79.10;100090.78;5022320;28;20599;-74
2023/05/14 01:28:35;;;;;;;17.00;11.47;;;;;;;12.08;78.52;100086.16;5021800;28;20258;-74
2023/05/14 01:31:11;;;;;;;17.13;12.32;;;;;;;12.06;78.67;100087.53;5022133;28;20262;-73
2023/05/14 01:36:59;;;;;;;23.42;12.77;;;;;;;12.26;78.61;100084.88;5015047;28;20036;-74
2023/05/14 01:39:25;;;;;;;16.08;11.05;;;;;;;12.27;77.89;100088.44;5022253;28;20152;-74
2023/05/14 01:41:52;;;;;;;20.45;11.25;;;;;;;12.21;78.15;100090.34;5022701;28;20891;-74
2023/05/14 01:44:17;;;;;;;17.50;11.15;;;;;;;12.12;78.20;100081.03;5022907;28;20033;-74
2023/05/14 01:46:43;;;;;;;19.25;12.40;;;;;;;12.22;77.42;100075.59;5022766;28;20127;-74
2023/05/14 01:49:08;;;;;;;18.37;11.90;;;;;;;12.08;78.04;100080.69;5021939;28;20050;-74
2023/05/14 01:51:33;;;;;;;19.05;13.23;;;;;;;12.05;77.59;100086.69;5022481;28;20269;-74
2023/05/14 01:53:58;;;;;;;17.75;12.00;;;;;;;11.97;77.89;100077.09;5022188;28;20490;-74
2023/05/14 01:56:24;;;;;;;26.48;12.88;;;;;;;11.98;78.21;100076.00;5022446;28;20734;-73
2023/05/14 01:58:50;;;;;;;28.85;12.18;;;;;;;11.91;77.99;100078.16;5021696;28;20068;-74
2023/05/14 02:01:15;;;;;;;20.10;12.13;;;;;;;11.88;78.66;100070.50;5022393;28;20044;-73
2023/05/14 02:03:40;;;;;;;17.85;13.07;;;;;;;11.83;77.91;100081.41;5022707;28;20077;-74
2023/05/14 02:06:06;;;;;;;17.20;11.52;;;;;;;11.90;78.47;100081.97;5021940;28;20029;-74
2023/05/14 02:08:31;;;;;;;24.95;12.70;;;;;;;11.97;78.31;100079.00;5021592;28;20042;-74
2023/05/14 02:10:56;;;;;;;19.57;12.63;;;;;;;11.94;78.13;100076.81;5021846;28;20040;-74
2023/05/14 02:13:21;;;;;;;17.67;12.40;;;;;;;11.90;78.34;100080.06;5022174;28;20453;-74
2023/05/14 02:15:48;;;;;;;18.47;11.90;;;;;;;11.81;78.66;100076.22;5021755;28;20349;-73
2023/05/14 02:18:13;;;;;;;17.88;12.80;;;;;;;11.77;78.62;100069.63;5021777;28;20286;-73
2023/05/14 02:20:38;;;;;;;20.33;13.52;;;;;;;11.77;78.62;100065.00;5021566;28;20025;-74
2023/05/14 02:23:03;;;;;;;20.53;12.87;;;;;;;11.70;78.80;100067.13;5021935;28;20079;-74
2023/05/14 02:25:29;;;;;;;15.73;10.93;;;;;;;11.74;78.49;100070.97;5021929;28;20659;-73
2023/05/14 02:27:54;;;;;;;20.67;12.43;;;;;;;11.86;78.44;100069.94;5021019;28;20267;-73
2023/05/14 02:30:21;;;;;;;20.45;13.13;;;;;;;11.88;78.83;100073.22;5022108;28;20292;-73
2023/05/14 02:32:46;;;;;;;16.98;12.32;;;;;;;11.83;78.79;100062.28;5022770;28;20061;-74
2023/05/14 02:35:11;;;;;;;17.17;11.93;;;;;;;11.79;78.66;100068.28;5021552;28;20037;-74
2023/05/14 02:37:37;;;;;;;19.10;12.43;;;;;;;11.77;78.80;100067.72;5021248;28;20295;-74
2023/05/14 02:40:03;;;;;;;19.30;13.13;;;;;;;11.85;78.67;100077.31;5020953;28;20354;-74
2023/05/14 02:42:28;;;;;;;20.13;12.05;;;;;;;11.93;78.58;100073.25;5021785;28;20030;-74
2023/05/14 02:44:53;;;;;;;18.58;13.13;;;;;;;11.86;78.39;100065.28;5021713;28;20265;-73
2023/05/14 02:47:19;;;;;;;16.20;12.02;;;;;;;11.90;77.73;100068.31;5021568;28;20044;-74
2023/05/14 02:49:44;;;;;;;19.57;12.33;;;;;;;11.83;78.03;100070.47;5021106;28;20514;-74
2023/05/14 02:52:09;;;;;;;18.88;12.23;;;;;;;11.77;78.64;100075.94;5021560;28;20255;-74
2023/05/14 02:54:34;;;;;;;19.80;13.57;;;;;;;11.78;78.19;100080.28;5021951;28;20037;-74
2023/05/14 02:57:00;;;;;;;19.50;13.47;;;;;;;11.80;77.88;100080.03;5021911;28;20287;-74
2023/05/14 02:59:25;;;;;;;17.63;12.87;;;;;;;11.74;78.76;100075.63;5020952;28;20735;-75
2023/05/14 03:01:51;;;;;;;17.77;11.68;;;;;;;11.70;78.20;100083.53;5021175;28;20251;-74
2023/05/14 03:04:16;;;;;;;18.70;11.85;;;;;;;11.66;78.71;100079.66;5021360;28;20064;-73
2023/05/14 03:06:41;;;;;;;18.83;11.47;;;;;;;11.74;77.88;100081.91;5020933;28;20155;-74
2023/05/14 03:09:07;;;;;;;21.08;12.68;;;;;;;11.70;78.44;100078.06;5020796;28;20270;-74
2023/05/14 03:11:32;;;;;;;16.73;12.10;;;;;;;11.66;78.34;100079.66;5021806;28;20030;-73
2023/05/14 03:13:57;;;;;;;17.08;12.20;;;;;;;11.66;78.42;100075.03;5021338;28;20289;-74
2023/05/14 03:16:23;;;;;;;15.73;11.20;;;;;;;11.56;78.39;100069.50;5021000;28;20521;-73
2023/05/14 03:18:48;;;;;;;20.13;12.50;;;;;;;11.58;77.97;100066.50;5020869;28;20263;-74
2023/05/14 03:21:13;;;;;;;18.95;11.93;;;;;;;11.55;78.25;100065.94;5021140;28;20434;-74
2023/05/14 03:23:39;;;;;;;16.77;12.10;;;;;;;11.53;78.24;100068.13;5021320;28;20041;-73
2023/05/14 03:26:04;;;;;;;22.48;11.95;;;;;;;11.55;78.22;100068.69;5021186;28;20530;-73
2023/05/14 03:28:30;;;;;;;18.65;12.00;;;;;;;11.62;78.35;100064.91;5020946;28;20042;-74
2023/05/14 03:30:55;;;;;;;19.15;11.77;;;;;;;11.59;78.02;100068.16;5021000;28;20030;-74
2023/05/14 03:33:21;;;;;;;18.83;11.85;;;;;;;11.52;78.41;100063.75;5024384;28;20034;-73
2023/05/14 03:35:46;;;;;;;25.00;11.48;;;;;;;11.53;78.18;100064.59;5024484;28;20912;-74
2023/05/14 03:38:12;;;;;;;16.05;10.98;;;;;;;11.55;78.31;100059.69;5020098;28;20041;-74
2023/05/14 03:40:37;;;;;;;18.50;11.80;;;;;;;11.52;78.52;100063.75;5025105;28;20128;-73
2023/05/14 03:43:02;;;;;;;17.83;11.10;;;;;;;11.55;77.57;100063.22;5024471;28;20247;-73
2023/05/14 03:45:29;;;;;;;16.83;10.80;;;;;;;11.53;77.92;100059.94;5024872;28;20034;-74
2023/05/14 03:47:54;;;;;;;17.80;10.57;;;;;;;11.50;78.13;100060.47;5023957;28;20259;-74
2023/05/14 03:50:19;;;;;;;17.95;11.05;;;;;;;11.41;78.24;100064.78;5024531;28;21196;-73
2023/05/14 03:52:45;;;;;;;16.40;11.77;;;;;;;11.36;78.04;100054.66;5024250;28;20032;-74
2023/05/14 03:55:10;;;;;;;17.50;11.10;;;;;;;11.34;77.98;100065.00;5024485;28;20255;-73
2023/05/14 03:57:35;;;;;;;25.08;11.75;;;;;;;11.38;78.28;100054.38;5024543;28;20278;-74
2023/05/14 04:00:01;;;;;;;15.68;9.45;;;;;;;11.38;78.60;100051.66;5024048;28;20681;-74
2023/05/14 04:02:26;;;;;;;16.85;11.07;;;;;;;11.45;78.62;100052.28;5024391;28;20033;-73
2023/05/14 04:04:51;;;;;;;19.95;11.20;;;;;;;11.40;78.27;100050.31;5023978;28;20076;-74
2023/05/14 04:07:17;;;;;;;15.53;10.40;;;;;;;11.31;78.29;100052.72;5024448;28;20128;-74
2023/05/14 04:09:42;;;;;;;15.35;10.52;;;;;;;11.37;78.98;100052.75;5023488;28;20309;-74
2023/05/14 04:12:08;;;;;;;14.17;9.77;;;;;;;11.37;78.85;100050.03;5023944;28;20037;-74
2023/05/14 04:14:33;;;;;;;15.32;11.27;;;;;;;11.35;78.97;100054.94;5023866;28;20841;-74
2023/05/14 04:16:58;;;;;;;25.73;10.55;;;;;;;11.32;79.33;100042.63;5023751;28;20055;-75
2023/05/14 04:19:23;;;;;;;16.70;10.50;;;;;;;11.41;79.08;100051.16;5023325;28;20488;-74
2023/05/14 04:21:49;;;;;;;16.10;11.17;;;;;;;11.39;78.68;100047.84;5023870;28;20326;-74
2023/05/14 04:24:15;;;;;;;21.30;12.13;;;;;;;11.41;79.00;100045.69;5023836;28;20313;-73
2023/05/14 04:26:41;;;;;;;15.50;11.15;;;;;;;11.49;79.15;100041.63;5024003;28;20096;-74
2023/05/14 04:29:06;;;;;;;20.17;11.47;;;;;;;11.48;79.39;100040.81;5023125;28;20589;-73
2023/05/14 04:31:32;;;;;;;16.77;11.57;;;;;;;11.52;79.09;100039.19;5023885;28;20267;-74
2023/05/14 04:33:57;;;;;;;16.13;11.45;;;;;;;11.61;79.18;100033.22;5023454;28;20263;-73
2023/05/14 04:36:22;;;;;;;18.00;11.35;;;;;;;11.61;79.50;100028.59;5023505;28;20037;-75
2023/05/14 04:38:48;;;;;;;18.55;12.13;;;;;;;11.65;79.77;100023.41;5022973;28;20048;-74
2023/05/14 04:41:13;;;;;;;15.70;10.77;;;;;;;11.76;79.11;100027.84;5023946;28;20040;-74
2023/05/14 04:43:39;;;;;;;18.13;11.73;;;;;;;11.81;79.23;100023.47;5023468;28;20776;-73
2023/05/14 04:46:04;;;;;;;16.98;11.80;;;;;;;11.81;79.64;100029.78;5023564;28;20258;-74
2023/05/14 04:48:30;;;;;;;19.20;12.13;;;;;;;11.89;79.20;100023.81;5021356;28;20072;-74
2023/05/14 04:50:55;;;;;;;16.20;10.90;;;;;;;11.90;79.70;100021.88;5023568;28;20553;-74
2023/05/14 04:53:20;;;;;;;16.93;11.70;;;;;;;11.95;79.66;100030.09;5023949;28;20807;-74
2023/05/14 04:55:45;;;;;;;19.00;10.90;;;;;;;11.95;79.69;100027.38;5023335;28;20271;-74
2023/05/14 04:58:11;;;;;;;22.20;11.40;;;;;;;12.08;79.21;100028.75;5022848;28;20026;-74
2023/05/14 05:00:37;;;;;;;16.55;10.52;;;;;;;12.13;79.49;100023.38;5023521;28;20262;-75
2023/05/14 05:03:02;;;;;;;17.10;11.43;;;;;;;12.13;79.68;100028.81;5022913;28;20458;-74
2023/05/14 05:05:28;;;;;;;17.30;11.23;;;;;;;12.22;79.49;100037.34;5021840;28;20035;-74
2023/05/14 05:07:53;;;;;;;20.27;10.97;;;;;;;12.22;79.86;100031.88;5022777;28;20033;-73
2023/05/14 05:10:18;;;;;;;15.40;11.68;;;;;;;12.35;80.27;100029.69;5023286;28;20320;-73
2023/05/14 05:12:44;;;;;;;16.33;10.17;;;;;;;12.47;80.21;100033.00;5023082;28;20407;-74
2023/05/14 05:15:09;;;;;;;18.98;13.73;;;;;;;12.56;80.24;100030.56;5022735;28;20310;-74
2023/05/14 05:17:35;;;;;;;19.55;11.18;;;;;;;12.63;80.35;100029.47;5023121;28;20029;-74
2023/05/14 05:20:00;;;;;;;16.13;10.57;;;;;;;12.68;79.73;100030.28;5022109;28;20032;-74
2023/05/14 05:22:26;;;;;;;16.55;10.82;;;;;;;12.72;80.29;100031.38;5022929;28;20387;-74
2023/05/14 05:24:51;;;;;;;15.27;10.55;;;;;;;12.77;79.47;100032.50;5022593;28;20087;-74
2023/05/14 05:27:16;;;;;;;20.00;11.27;;;;;;;12.79;79.66;100033.03;5022704;28;20068;-74
2023/05/14 05:29:43;;;;;;;15.20;10.33;;;;;;;12.79;79.79;100035.78;5022317;28;20259;-73
2023/05/14 05:32:08;;;;;;;16.60;9.07;;;;;;;12.87;79.38;100034.41;5022289;28;20297;-74
2023/05/14 05:34:34;;;;;;;14.85;10.00;;;;;;;12.95;78.81;100031.13;5022910;28;20053;-73
2023/05/14 05:36:59;;;;;;;11.90;8.85;;;;;;;12.90;78.26;100037.41;5022247;28;20503;-74
2023/05/14 05:39:25;;;;;;;14.53;9.23;;;;;;;12.98;78.41;100035.22;5022274;28;20041;-73
2023/05/14 05:41:50;;;;;;;12.25;8.70;;;;;;;12.95;78.38;100034.69;5022541;28;20647;-74
2023/05/14 05:44:15;;;;;;;16.03;9.67;;;;;;;13.00;78.37;100038.47;5022580;28;20033;-73
2023/05/14 05:46:40;;;;;;;16.70;9.97;;;;;;;12.99;78.49;100039.59;5022420;28;20265;-74
2023/05/14 05:49:06;;;;;;;14.00;9.33;;;;;;;12.95;78.18;100048.38;5021891;28;20346;-73
2023/05/14 05:51:32;;;;;;;13.63;8.40;;;;;;;12.93;78.21;100042.34;5022621;28;20772;-73
2023/05/14 05:53:57;;;;;;;15.43;9.20;;;;;;;12.93;78.37;100039.59;5022201;28;20032;-74
2023/05/14 05:56:22;;;;;;;17.40;10.15;;;;;;;12.92;78.71;100042.59;5021739;28;20033;-73
2023/05/14 05:58:48;;;;;;;13.40;9.07;;;;;;;12.95;78.57;100042.91;5021815;28;20061;-74
2023/05/14 06:01:13;;;;;;;17.55;9.13;;;;;;;12.99;78.69;100043.16;5021934;28;20102;-74
2023/05/14 06:03:38;;;;;;;16.95;9.80;;;;;;;13.05;78.43;100049.44;5022233;28;20048;-73
2023/05/14 06:06:05;;;;;;;16.85;8.45;;;;;;;13.13;78.15;100043.41;5022046;28;20034;-74
2023/05/14 06:08:30;;;;;;;20.80;8.75;;;;;;;13.23;77.75;100049.97;5021701;28;20033;-73
2023/05/14 06:10:55;;;;;;;15.35;8.13;;;;;;;13.25;77.89;100048.59;5021731;28;20028;-74
2023/05/14 06:13:21;;;;;;;12.80;8.35;;;;;;;13.32;77.90;100048.34;5021942;28;20832;-74
2023/05/14 06:15:46;;;;;;;13.77;8.57;;;;;;;13.36;78.06;100054.91;5021575;28;20096;-73
2023/05/14 06:18:11;;;;;;;13.80;8.73;;;;;;;13.42;77.64;100042.81;5021377;28;20399;-74
2023/05/14 06:20:37;;;;;;;13.30;7.75;;;;;;;13.50;77.07;100048.84;5022252;28;20259;-73
2023/05/14 06:23:02;;;;;;;12.27;7.80;;;;;;;13.54;76.96;100052.69;5021841;28;20136;-73
2023/05/14 06:25:27;;;;;;;14.43;8.93;;;;;;;13.60;77.36;100053.50;5022100;28;20041;-73
2023/05/14 06:27:52;;;;;;;13.47;8.27;;;;;;;13.61;77.50;100052.38;5021449;28;20026;-74
2023/05/14 06:30:18;;;;;;;20.77;7.63;;;;;;;13.68;77.20;100063.88;5021900;28;20246;-73
2023/05/14 06:32:43;;;;;;;11.10;7.00;;;;;;;13.72;76.52;100054.00;5021769;28;20341;-74
2023/05/14 06:35:08;;;;;;;13.77;8.73;;;;;;;13.79;76.45;100059.19;5020794;28;20037;-74
2023/05/14 06:37:34;;;;;;;13.88;9.15;;;;;;;13.81;76.94;100062.47;5020794;28;20321;-74
2023/05/14 06:40:00;;;;;;;10.70;7.18;;;;;;;13.83;76.77;100059.47;5020624;28;20079;-73
2023/05/14 06:42:25;;;;;;;18.58;8.95;;;;;;;13.89;76.53;100059.16;5021287;28;20036;-74
2023/05/14 06:44:50;;;;;;;12.38;7.43;;;;;;;13.96;76.43;100052.53;5021424;28;20036;-74
2023/05/14 06:47:15;;;;;;;14.38;7.40;;;;;;;13.99;75.84;100052.00;5021388;28;20065;-74
2023/05/14 06:49:41;;;;;;;18.30;9.63;;;;;;;14.01;76.15;100052.53;5020837;28;20037;-74
2023/05/14 06:52:06;;;;;;;15.40;7.03;;;;;;;14.06;76.26;100046.19;5021366;28;20906;-74
2023/05/14 06:54:32;;;;;;;13.07;7.25;;;;;;;14.10;75.64;100048.09;5021339;28;20316;-74
2023/05/14 06:56:57;;;;;;;11.93;7.95;;;;;;;14.19;74.73;100053.00;5021236;28;20037;-74
2023/05/14 06:59:22;;;;;;;12.27;7.40;;;;;;;14.24;74.97;100037.34;5020864;28;20037;-75
2023/05/14 07:01:47;;;;;;;14.80;7.70;;;;;;;14.24;75.22;100042.00;5020988;28;20040;-75
2023/05/14 07:04:13;;;;;;;16.40;7.47;;;;;;;14.27;75.34;100041.44;5021469;28;20099;-75
2023/05/14 07:06:38;;;;;;;13.50;7.95;;;;;;;14.29;75.32;100036.50;5021919;28;20061;-74
2023/05/14 07:09:03;;;;;;;12.25;7.60;;;;;;;14.35;74.86;100035.34;5024752;28;20192;-74
2023/05/14 07:11:29;;;;;;;13.65;7.78;;;;;;;14.40;75.33;100033.69;5025503;28;20463;-74
2023/05/14 07:13:54;;;;;;;15.13;6.88;;;;;;;14.45;74.66;100033.66;5024812;28;20044;-75
2023/05/14 07:16:20;;;;;;;11.43;7.00;;;;;;;14.51;74.75;100040.75;5023859;28;20050;-75
2023/05/14 07:18:45;;;;;;;13.93;8.18;;;;;;;14.56;74.33;100028.91;5024736;28;20034;-74
2023/05/14 07:21:10;;;;;;;10.50;7.45;;;;;;;14.61;74.73;100033.53;5025070;28;20476;-74
2023/05/14 07:23:37;;;;;;;11.57;7.75;;;;;;;14.66;74.16;100030.78;5025506;28;20679;-75
2023/05/14 07:26:04;;;;;;;10.10;6.65;;;;;;;14.71;74.26;100028.78;5024922;28;20029;-75
2023/05/14 07:28:29;;;;;;;12.73;7.50;;;;;;;14.79;74.05;100023.78;5024728;28;20487;-74
2023/05/14 07:30:54;;;;;;;11.35;7.95;;;;;;;14.85;73.83;100021.88;5024375;28;20083;-82
2023/05/14 07:33:20;;;;;;;15.57;8.77;;;;;;;14.89;73.79;100022.94;5024872;28;20107;-78
2023/05/14 07:35:45;;;;;;;11.27;7.47;;;;;;;14.96;73.25;100017.09;5024048;28;21461;-79
2023/05/14 07:38:10;;;;;;;12.20;8.90;;;;;;;15.01;72.56;100022.56;5023897;28;20479;-80
2023/05/14 07:40:36;;;;;;;15.80;8.85;;;;;;;15.04;72.99;100028.28;5024799;28;20393;-81
2023/05/14 07:43:01;;;;;;;14.40;9.63;;;;;;;15.08;72.55;100025.78;5023885;28;20034;-79
2023/05/14 07:45:26;;;;;;;13.43;8.90;;;;;;;15.15;72.53;100019.97;5024213;28;20318;-78
2023/05/14 07:47:52;;;;;;;20.73;10.73;;;;;;;15.21;72.47;100024.28;5024516;28;20267;-79
2023/05/14 07:50:17;;;;;;;15.20;8.82;;;;;;;15.25;72.56;100019.88;5025298;28;20541;-78
2023/05/14 07:52:43;;;;;;;11.02;8.13;;;;;;;15.31;72.53;100023.38;5025534;28;20042;-78
2023/05/14 07:55:09;;;;;;;11.52;8.43;;;;;;;15.38;71.73;100028.50;5025480;28;20133;-79
2023/05/14 07:57:34;;;;;;;9.98;6.72;;;;;;;15.43;70.98;100017.47;5025739;28;20041;-78
2023/05/14 08:00:00;;;;;;;12.83;6.63;;;;;;;15.51;70.71;100021.50;5024671;28;20053;-79
2023/05/14 08:02:25;;;;;;;15.27;8.50;;;;;;;15.55;70.46;100017.06;5025438;28;20255;-77
2023/05/14 08:04:50;;;;;;;15.48;6.05;;;;;;;15.59;70.31;100011.78;5025305;28;20029;-79
2023/05/14 08:07:16;;;;;;;11.40;5.38;;;;;;;15.65;70.19;100013.38;5025138;28;21258;-79
2023/05/14 08:09:41;;;;;;;8.87;5.47;;;;;;;15.74;69.88;100019.06;5024462;28;20040;-79
2023/05/14 08:12:07;;;;;;;8.73;5.17;;;;;;;15.78;69.03;100014.59;5025399;28;20811;-78
2023/05/14 08:14:32;;;;;;;8.25;4.28;;;;;;;15.85;68.56;100019.72;5025322;28;20278;-78
2023/05/14 08:16:57;;;;;;;11.02;5.30;;;;;;;15.95;68.45;100022.34;5024285;28;20184;-78
2023/05/14 08:19:23;;;;;;;7.93;4.63;;;;;;;15.99;68.35;100020.66;5023996;28;20037;-77
2023/05/14 08:21:49;;;;;;;7.97;4.15;;;;;;;16.05;68.59;100023.38;5024472;28;20269;-79
2023/05/14 08:24:14;;;;;;;8.85;4.88;;;;;;;16.11;67.74;100013.91;5025036;28;20051;-78
2023/05/14 08:26:39;;;;;;;6.20;3.20;;;;;;;16.18;66.61;100022.63;5024660;28;20042;-78
2023/05/14 08:29:04;;;;;;;7.13;3.43;;;;;;;16.29;65.46;100017.78;5023477;28;20317;-78
2023/05/14 08:31:30;;;;;;;7.07;4.43;;;;;;;16.35;66.06;100007.56;5024803;28;20365;-78
2023/05/14 08:33:55;;;;;;;5.82;3.38;;;;;;;16.36;64.84;100011.91;5024686;28;20267;-78
2023/05/14 08:36:21;;;;;;;4.20;2.75;;;;;;;16.42;64.14;100010.72;5024232;28;20132;-78
2023/05/14 08:38:47;;;;;;;3.85;2.50;;;;;;;16.48;62.61;100013.38;5023300;28;20402;-79
2023/05/14 08:41:14;;;;;;;5.50;3.15;;;;;;;16.64;62.94;100013.97;5024027;28;20052;-78
2023/05/14 08:44:05;;;;;;;5.47;3.17;;;;;;;16.68;63.47;100013.06;5024510;28;20025;-79
2023/05/14 08:46:31;;;;;;;5.15;3.10;;;;;;;16.78;61.03;100014.03;5023032;28;20045;-80
2023/05/14 08:49:22;;;;;;;8.38;2.97;;;;;;;16.87;60.23;100005.91;5024198;28;20310;-78
2023/05/14 08:51:48;;;;;;;5.78;2.63;;;;;;;16.88;59.13;99997.31;5024754;28;20145;-79
2023/05/14 08:54:17;;;;;;;4.75;2.97;;;;;;;16.99;58.57;99997.16;5024932;28;20114;-78
2023/05/14 08:56:45;;;;;;;5.65;2.38;;;;;;;17.07;58.91;99996.47;5024672;28;20119;-78
2023/05/14 08:59:11;;;;;;;4.55;2.95;;;;;;;17.22;59.45;100002.84;5024240;28;20030;-78
2023/05/14 09:01:40;;;;;;;4.88;2.67;;;;;;;17.24;58.44;99990.41;5024999;28;20043;-78
2023/05/14 09:04:07;;;;;;;4.30;2.67;;;;;;;17.42;58.39;99995.28;5024708;28;20038;-78
2023/05/14 09:06:36;;;;;;;8.40;2.47;;;;;;;17.48;58.24;99989.38;5024933;28;20041;-79
2023/05/14 09:09:01;;;;;;;5.22;2.55;;;;;;;17.57;56.46;99988.69;5024169;28;20409;-79
2023/05/14 09:11:27;;;;;;;4.97;2.95;;;;;;;17.64;55.09;99991.00;5024121;28;20049;-78
2023/05/14 09:13:52;;;;;;;6.27;3.13;;;;;;;17.70;54.92;99990.59;5024275;28;20114;-78
2023/05/14 09:16:19;;;;;;;6.67;2.90;;;;;;;17.77;56.04;99990.19;5023647;28;20303;-79
2023/05/14 09:18:44;;;;;;;3.55;1.92;;;;;;;17.83;53.75;99980.69;5023909;28;20259;-79
2023/05/14 09:21:13;;;;;;;3.97;2.35;;;;;;;17.97;55.07;99977.91;5024174;28;20044;-79
2023/05/14 09:23:40;;;;;;;5.13;2.90;;;;;;;18.11;54.72;99987.25;5024446;28;20037;-78
2023/05/14 09:26:06;;;;;;;5.75;2.88;;;;;;;18.20;55.65;99985.44;5024213;28;20042;-77
2023/05/14 09:28:31;;;;;;;5.17;3.13;;;;;;;18.27;54.08;99980.28;5022636;28;20107;-80
2023/05/14 09:30:56;;;;;;;3.43;1.83;;;;;;;18.36;54.07;99976.78;5023356;28;20266;-79
2023/05/14 09:33:28;;;;;;;5.00;2.57;;;;;;;18.46;52.44;99984.84;5024916;28;20294;-78
2023/05/14 09:35:59;;;;;;;4.32;2.72;;;;;;;18.55;52.41;99980.19;5024099;28;20278;-79
2023/05/14 09:38:30;;;;;;;12.25;3.67;;;;;;;18.67;52.10;99978.81;5024008;28;20041;-83
2023/05/14 09:40:56;;;;;;;8.05;3.05;;;;;;;18.71;52.20;99981.75;5039926;28;20107;-83
2023/05/14 09:43:22;;;;;;;4.05;2.33;;;;;;;18.82;52.58;99977.59;5024462;28;20144;-82
2023/05/14 09:45:47;;;;;;;4.70;2.47;;;;;;;18.92;52.70;99975.69;5024100;28;20068;-83
2023/05/14 09:48:12;;;;;;;5.85;2.97;;;;;;;19.04;52.36;99973.16;5024252;28;20038;-85
2023/05/14 09:50:42;;;;;;;12.67;2.87;;;;;;;19.13;51.38;99971.25;5024441;28;20049;-86
2023/05/14 09:53:07;;;;;;;6.18;2.90;;;;;;;19.24;51.96;99965.50;5024344;28;20267;-81
2023/05/14 09:55:34;;;;;;;5.65;2.90;;;;;;;19.29;52.65;99970.88;5024440;28;20045;-82
2023/05/14 09:57:59;;;;;;;7.50;3.22;;;;;;;19.39;50.09;99967.00;5022692;28;20076;-83
2023/05/14 10:00:25;;;;;;;7.97;3.00;;;;;;;19.41;48.78;99964.72;5023557;28;20469;-83
2023/05/14 10:02:52;;;;;;;26.40;4.70;;;;;;;19.45;50.07;99959.38;5023634;28;20258;-82
2023/05/14 10:05:19;;;;;;;5.18;3.42;;;;;;;19.53;50.19;99960.53;5024722;28;20322;-82
2023/05/14 10:07:50;;;;;;;6.85;3.58;;;;;;;19.54;49.84;99956.63;5022595;28;20029;-82
2023/05/14 10:10:18;;;;;;;5.47;3.72;;;;;;;19.62;47.30;99955.03;5023933;28;20049;-82
2023/05/14 10:12:53;;;;;;;13.05;3.25;;;;;;;19.66;47.63;99947.72;5024363;28;20590;-82
2023/05/14 10:15:40;;;;;;;5.50;3.38;;;;;;;19.71;48.31;99940.06;5023654;28;20138;-83
2023/05/14 10:18:10;;;;;;;6.50;3.65;;;;;;;19.84;50.50;99940.25;5023909;28;20026;-82
2023/05/14 10:20:37;;;;;;;5.35;3.17;;;;;;;19.95;46.70;99932.47;5024070;28;20149;-83
2023/05/14 10:23:03;;;;;;;6.57;3.55;;;;;;;20.00;47.42;99943.38;5023789;28;20033;-83
2023/05/14 10:25:28;;;;;;;6.22;3.35;;;;;;;19.98;48.61;99936.53;5024017;28;20553;-82
2023/05/14 10:27:54;;;;;;;7.50;4.13;;;;;;;19.95;48.74;99944.34;5023142;28;20116;-81
2023/05/14 10:30:23;;;;;;;5.25;3.47;;;;;;;20.02;49.20;99932.78;5024519;28;20187;-81
2023/05/14 10:33:07;;;;;;;5.18;3.10;;;;;;;20.09;46.64;99928.75;5023052;28;20052;-80
2023/05/14 10:35:50;;;;;;;;;;;;;;;20.09;46.59;99921.28;5024635;28;20042;-87
2023/05/14 10:38:15;;;;;;;5.57;3.08;;;;;;;19.90;49.24;99933.44;5024155;28;19925;-82
2023/05/14 10:40:40;;;;;;;6.63;3.72;;;;;;;20.05;46.07;99932.16;5023537;28;20052;-84
2023/05/14 10:43:07;;;;;;;37.67;4.27;;;;;;;20.22;45.99;99926.97;5023858;28;20768;-83
2023/05/14 10:45:33;;;;;;;7.55;2.63;;;;;;;20.32;45.11;99926.63;5023815;28;20282;-83
2023/05/14 10:47:58;;;;;;;4.18;2.75;;;;;;;20.40;45.84;99925.78;5022121;28;20033;-82
2023/05/14 10:50:25;;;;;;;6.45;3.50;;;;;;;20.42;45.56;99912.44;5022308;28;20049;-83
2023/05/14 10:52:51;;;;;;;9.13;3.40;;;;;;;20.55;45.62;99917.28;5022362;28;20711;-82
2023/05/14 10:55:17;;;;;;;6.70;3.35;;;;;;;20.69;46.59;99922.63;5022212;28;20095;-81
2023/05/14 10:57:45;;;;;;;5.15;2.78;;;;;;;20.78;46.32;99917.91;5020777;28;20037;-83
2023/05/14 11:00:12;;;;;;;3.63;2.30;;;;;;;20.91;43.20;99912.50;5021858;28;20053;-83
2023/05/14 11:02:40;;;;;;;10.77;3.10;;;;;;;20.77;44.30;99917.09;5022796;28;20112;-82
2023/05/14 11:05:10;;;;;;;4.45;3.08;;;;;;;20.88;42.67;99917.53;5022990;28;20033;-83
2023/05/14 11:07:42;;;;;;;4.55;2.28;;;;;;;20.99;42.90;99912.47;5022718;28;20575;-82
2023/05/14 11:10:08;;;;;;;4.10;2.40;;;;;;;21.02;42.84;99905.44;5021034;28;20442;-82
2023/05/14 11:12:36;;;;;;;7.80;2.80;;;;;;;21.06;43.26;99906.41;5023246;28;20030;-82
2023/05/14 11:15:03;;;;;;;5.00;3.17;;;;;;;21.15;42.34;99903.63;5022617;28;20041;-82
2023/05/14 11:17:30;;;;;;;10.02;2.60;;;;;;;21.20;42.46;99900.63;5023233;28;20052;-83